createdAt,value
2018-10-17T00:00:22.324Z,7
2018-10-17T00:01:13.839Z,6.9
2018-10-17T00:02:02.729Z,6.7
2018-10-17T00:02:52.539Z,6.8
2018-10-17T00:03:43.115Z,6.8
2018-10-17T00:04:33.210Z,6.7
2018-10-17T00:05:23.259Z,6.6
2018-10-17T00:06:13.314Z,6.6
2018-10-17T00:07:03.421Z,6.6
2018-10-17T00:25:19.140Z,6.1
2018-10-17T00:26:09.623Z,6.1
2018-10-17T00:26:59.352Z,6.1
2018-10-17T00:27:49.722Z,6.1
2018-10-17T00:28:39.796Z,6.1
2018-10-17T00:29:29.288Z,6
2018-10-17T00:30:19.635Z,6
2018-10-17T00:31:10.786Z,6
2018-10-17T00:31:59.465Z,6
2018-10-17T00:32:49.510Z,6
2018-10-17T00:33:40.137Z,5.9
2018-10-17T00:34:29.458Z,6
2018-10-17T00:35:20.193Z,6
2018-10-17T00:36:09.782Z,6.1
2018-10-17T00:37:00.476Z,6.1
2018-10-17T00:37:49.602Z,6.1
2018-10-17T00:38:40.224Z,6.2
2018-10-17T00:39:29.985Z,6.2
2018-10-17T00:40:21.045Z,6.3
2018-10-17T00:41:11.235Z,6.3
2018-10-17T00:42:00.779Z,6.3
2018-10-17T00:42:50.805Z,6.3
2018-10-17T00:43:40.871Z,6.4
2018-10-17T00:44:31.182Z,6.4
2018-10-17T00:45:20.980Z,6.4
2018-10-17T00:46:10.769Z,6.4
2018-10-17T00:47:01.075Z,6.5
2018-10-17T00:47:50.911Z,6.6
2018-10-17T00:48:40.959Z,6.5
2018-10-17T00:49:31.320Z,6.6
2018-10-17T00:50:21.078Z,6.6
2018-10-17T00:51:11.436Z,6.7
2018-10-17T00:52:00.644Z,6.6
2018-10-17T00:52:51.040Z,6.6
2018-10-17T00:53:41.360Z,6.6
2018-10-17T00:54:31.685Z,6.7
2018-10-17T00:55:21.457Z,6.7
2018-10-17T00:56:11.835Z,6.8
2018-10-17T00:57:01.295Z,6.8
2018-10-17T00:57:52.159Z,6.7
2018-10-17T00:58:41.979Z,6.7
2018-10-17T00:59:32.052Z,6.6
2018-10-17T01:00:22.121Z,6.7
2018-10-17T01:01:13.172Z,6.7
2018-10-17T01:02:01.961Z,6.7
2018-10-17T01:02:52.006Z,6.7
2018-10-17T01:03:42.064Z,6.6
2018-10-17T01:04:32.427Z,6.6
2018-10-17T01:05:22.495Z,6.7
2018-10-17T01:06:12.548Z,6.6
2018-10-17T01:07:03.145Z,6.6
2018-10-17T01:07:52.123Z,6.4
2018-10-17T01:08:42.986Z,6.4
2018-10-17T01:09:32.489Z,6.4
2018-10-17T01:10:22.897Z,6.3
2018-10-17T01:11:13.573Z,6.3
2018-10-17T01:12:02.497Z,6.3
2018-10-17T01:12:53.327Z,6.3
2018-10-17T01:13:42.536Z,6.2
2018-10-17T01:14:32.874Z,6.2
2018-10-17T01:15:22.681Z,6.2
2018-10-17T01:16:13.353Z,6.1
2018-10-17T01:17:03.718Z,6.1
2018-10-17T01:17:53.187Z,6.1
2018-10-17T01:18:43.420Z,6.2
2018-10-17T01:19:33.265Z,6.2
2018-10-17T01:20:23.334Z,6.1
2018-10-17T01:21:13.931Z,6.1
2018-10-17T01:22:03.780Z,5.9
2018-10-17T01:22:53.738Z,5.8
2018-10-17T01:23:43.298Z,5.8
2018-10-17T01:24:33.869Z,5.7
2018-10-17T01:25:23.411Z,5.8
2018-10-17T01:26:13.768Z,5.7
2018-10-17T01:27:03.790Z,5.7
2018-10-17T01:27:54.135Z,5.6
2018-10-17T01:28:43.359Z,5.5
2018-10-17T01:29:34.560Z,5.4
2018-10-17T01:30:24.314Z,5.4
2018-10-17T01:31:14.793Z,5.3
2018-10-17T01:32:04.180Z,5.3
2018-10-17T01:32:54.233Z,5.3
2018-10-17T01:33:44.287Z,5.1
2018-10-17T01:34:34.654Z,5.1
2018-10-17T01:35:24.404Z,5.1
2018-10-17T01:36:14.757Z,5
2018-10-17T01:37:04.639Z,5.1
2018-10-17T01:37:54.599Z,5.1
2018-10-17T01:38:44.640Z,5.1
2018-10-17T01:39:34.735Z,5.1
2018-10-17T01:40:25.367Z,5.1
2018-10-17T01:41:16.097Z,5.1
2018-10-17T01:42:05.224Z,5.1
2018-10-17T01:42:55.190Z,5.1
2018-10-17T01:43:45.042Z,5.1
2018-10-17T01:44:35.657Z,5.1
2018-10-17T01:45:24.825Z,5.1
2018-10-17T01:46:15.199Z,5.1
2018-10-17T01:47:06.076Z,5.1
2018-10-17T01:47:55.602Z,5.2
2018-10-17T01:48:45.119Z,5.3
2018-10-17T01:49:35.126Z,5.3
2018-10-17T01:50:25.789Z,5.3
2018-10-17T01:51:15.572Z,5.3
2018-10-17T01:52:05.881Z,5.3
2018-10-17T01:52:56.445Z,5.3
2018-10-17T01:53:45.754Z,5.4
2018-10-17T01:54:35.813Z,5.5
2018-10-17T01:55:25.881Z,5.6
2018-10-17T01:56:16.200Z,5.7
2018-10-17T01:57:06.021Z,5.7
2018-10-17T01:57:56.385Z,5.8
2018-10-17T01:58:46.406Z,5.8
2018-10-17T01:59:36.455Z,5.9
2018-10-17T02:00:26.557Z,5.9
2018-10-17T02:01:16.751Z,5.9
2018-10-17T02:02:06.625Z,5.8
2018-10-17T02:02:56.709Z,5.8
2018-10-17T02:03:46.511Z,5.8
2018-10-17T02:04:36.567Z,5.9
2018-10-17T02:05:26.624Z,5.9
2018-10-17T02:06:16.662Z,5.9
2018-10-17T02:07:07.157Z,5.9
2018-10-17T02:07:56.477Z,6
2018-10-17T02:08:46.874Z,6
2018-10-17T02:09:37.212Z,5.9
2018-10-17T02:10:27.260Z,6
2018-10-17T02:11:17.056Z,5.9
2018-10-17T02:12:06.852Z,5.9
2018-10-17T02:12:57.437Z,5.9
2018-10-17T02:13:47.517Z,5.8
2018-10-17T02:14:37.034Z,5.6
2018-10-17T02:15:27.324Z,5.4
2018-10-17T02:16:17.699Z,5.3
2018-10-17T02:17:08.336Z,5.2
2018-10-17T02:17:57.540Z,5.1
2018-10-17T02:18:47.851Z,5.1
2018-10-17T02:19:37.936Z,5.1
2018-10-17T02:20:28.004Z,5.1
2018-10-17T02:21:17.769Z,5.1
2018-10-17T02:22:08.118Z,5.1
2018-10-17T02:22:57.856Z,5.1
2018-10-17T02:23:47.964Z,5.1
2018-10-17T02:24:38.311Z,5.1
2018-10-17T02:25:28.086Z,5.1
2018-10-17T02:26:18.168Z,5.1
2018-10-17T02:27:08.793Z,5.1
2018-10-17T02:27:58.272Z,5.1
2018-10-17T02:28:48.011Z,5.1
2018-10-17T02:29:38.651Z,5
2018-10-17T02:30:28.777Z,4.9
2018-10-17T02:31:19.767Z,4.9
2018-10-17T02:32:08.643Z,4.8
2018-10-17T02:32:58.911Z,4.8
2018-10-17T02:33:49.261Z,4.8
2018-10-17T02:34:39.040Z,4.8
2018-10-17T02:35:28.503Z,4.8
2018-10-17T02:36:18.931Z,4.8
2018-10-17T02:37:10.113Z,4.9
2018-10-17T02:37:59.279Z,4.8
2018-10-17T02:38:48.486Z,4.8
2018-10-17T02:39:38.866Z,4.8
2018-10-17T02:40:29.180Z,4.8
2018-10-17T02:41:20.066Z,4.8
2018-10-17T02:42:09.595Z,4.8
2018-10-17T02:42:59.787Z,4.9
2018-10-17T02:43:49.445Z,4.9
2018-10-17T02:44:39.785Z,4.9
2018-10-17T02:45:30.127Z,4.9
2018-10-17T02:46:19.346Z,4.9
2018-10-17T02:47:11.099Z,4.9
2018-10-17T02:47:59.755Z,4.9
2018-10-17T02:48:50.116Z,5
2018-10-17T02:49:39.867Z,5
2018-10-17T02:50:29.962Z,4.9
2018-10-17T02:51:19.719Z,4.9
2018-10-17T02:52:10.586Z,4.9
2018-10-17T02:53:00.745Z,4.9
2018-10-17T02:53:50.453Z,4.9
2018-10-17T02:54:40.505Z,4.9
2018-10-17T02:55:30.582Z,4.8
2018-10-17T02:56:20.652Z,4.8
2018-10-17T02:57:10.956Z,4.9
2018-10-17T02:58:00.183Z,4.9
2018-10-17T02:58:51.109Z,4.8
2018-10-17T02:59:40.581Z,4.8
2018-10-17T03:00:31.022Z,4.8
2018-10-17T03:01:20.695Z,4.8
2018-10-17T03:02:10.774Z,4.8
2018-10-17T03:03:00.843Z,4.8
2018-10-17T03:03:51.440Z,4.9
2018-10-17T03:04:40.969Z,5
2018-10-17T03:05:31.377Z,5.1
2018-10-17T03:06:21.354Z,5.1
2018-10-17T03:07:11.317Z,5
2018-10-17T03:08:01.483Z,5.1
2018-10-17T03:08:51.275Z,5.1
2018-10-17T03:09:41.337Z,5.1
2018-10-17T03:10:31.122Z,5.1
2018-10-17T03:11:21.937Z,5.1
2018-10-17T03:12:11.844Z,5.2
2018-10-17T03:13:02.287Z,5.3
2018-10-17T03:13:51.636Z,5.3
2018-10-17T03:14:42.008Z,5.4
2018-10-17T03:15:32.097Z,5.4
2018-10-17T03:16:22.251Z,5.5
2018-10-17T03:17:13.212Z,5.5
2018-10-17T03:18:02.251Z,5.5
2018-10-17T03:18:52.134Z,5.6
2018-10-17T03:19:42.294Z,5.6
2018-10-17T03:20:32.151Z,5.5
2018-10-17T03:21:22.254Z,5.5
2018-10-17T03:22:12.315Z,5.5
2018-10-17T03:23:03.114Z,5.5
2018-10-17T03:23:52.671Z,5.6
2018-10-17T03:24:42.469Z,5.6
2018-10-17T03:25:33.545Z,5.7
2018-10-17T03:26:22.611Z,5.7
2018-10-17T03:27:12.917Z,5.7
2018-10-17T03:28:02.923Z,5.6
2018-10-17T03:28:52.576Z,5.6
2018-10-17T03:29:42.513Z,5.6
2018-10-17T03:30:32.904Z,5.6
2018-10-17T03:31:23.733Z,5.6
2018-10-17T03:32:13.083Z,5.5
2018-10-17T03:33:03.088Z,5.5
2018-10-17T03:33:53.117Z,5.5
2018-10-17T03:34:43.500Z,5.5
2018-10-17T03:35:33.305Z,5.4
2018-10-17T03:36:23.621Z,5.5
2018-10-17T03:37:13.893Z,5.6
2018-10-17T03:38:03.505Z,5.5
2018-10-17T03:38:53.839Z,5.5
2018-10-17T03:39:43.668Z,5.6
2018-10-17T03:40:33.944Z,5.6
2018-10-17T03:41:23.820Z,5.7
2018-10-17T03:42:13.863Z,5.8
2018-10-17T03:43:03.915Z,5.9
2018-10-17T03:43:54.209Z,6
2018-10-17T03:44:44.274Z,6.1
2018-10-17T03:45:34.070Z,6.1
2018-10-17T03:46:24.075Z,6.1
2018-10-17T03:47:15.444Z,6
2018-10-17T03:48:03.648Z,5.9
2018-10-17T03:48:54.590Z,5.9
2018-10-17T03:49:44.973Z,5.9
2018-10-17T03:50:34.182Z,5.8
2018-10-17T03:51:24.737Z,5.9
2018-10-17T03:52:14.792Z,5.9
2018-10-17T03:53:05.419Z,5.8
2018-10-17T03:53:54.890Z,5.9
2018-10-17T03:54:44.998Z,5.9
2018-10-17T03:55:34.757Z,5.8
2018-10-17T03:56:24.800Z,5.8
2018-10-17T03:57:14.832Z,5.8
2018-10-17T03:58:04.619Z,5.7
2018-10-17T03:58:55.534Z,5.6
2018-10-17T03:59:45.529Z,5.6
2018-10-17T04:00:35.104Z,5.5
2018-10-17T04:01:24.864Z,5.5
2018-10-17T04:02:15.506Z,5.5
2018-10-17T04:03:06.056Z,5.6
2018-10-17T04:03:55.626Z,5.6
2018-10-17T04:04:45.115Z,5.6
2018-10-17T04:05:35.745Z,5.6
2018-10-17T04:06:26.089Z,5.6
2018-10-17T04:07:16.161Z,5.6
2018-10-17T04:08:05.912Z,5.6
2018-10-17T04:08:55.956Z,5.6
2018-10-17T04:09:46.058Z,5.4
2018-10-17T04:10:35.815Z,5.5
2018-10-17T04:11:25.911Z,5.4
2018-10-17T04:12:15.936Z,5.4
2018-10-17T04:13:06.837Z,5.4
2018-10-17T04:13:56.335Z,5.4
2018-10-17T04:14:46.398Z,5.4
2018-10-17T04:15:36.480Z,5.4
2018-10-17T04:16:26.790Z,5.4
2018-10-17T04:17:16.877Z,5.3
2018-10-17T04:18:06.680Z,5.3
2018-10-17T04:18:56.733Z,5.3
2018-10-17T04:19:46.785Z,5.2
2018-10-17T04:20:36.908Z,5.1
2018-10-17T04:21:26.588Z,5.1
2018-10-17T04:22:16.933Z,5.1
2018-10-17T04:23:07.816Z,5
2018-10-17T04:23:57.116Z,5
2018-10-17T04:24:46.868Z,5
2018-10-17T04:25:37.257Z,5
2018-10-17T04:26:26.677Z,5
2018-10-17T04:27:17.051Z,4.9
2018-10-17T04:28:07.105Z,4.9
2018-10-17T04:28:57.745Z,4.9
2018-10-17T04:29:47.200Z,5
2018-10-17T04:30:37.292Z,4.9
2018-10-17T04:31:27.349Z,4.9
2018-10-17T04:32:17.702Z,4.9
2018-10-17T04:33:07.205Z,4.9
2018-10-17T04:33:57.802Z,4.9
2018-10-17T04:34:47.890Z,4.9
2018-10-17T04:35:37.939Z,4.9
2018-10-17T04:36:27.714Z,4.9
2018-10-17T04:54:18.805Z,4.9
2018-10-17T04:55:08.790Z,4.9
2018-10-17T04:55:58.387Z,4.8
2018-10-17T04:56:48.505Z,4.8
2018-10-17T04:57:38.530Z,4.8
2018-10-17T04:58:28.590Z,4.8
2018-10-17T04:59:19.593Z,4.8
2018-10-17T05:00:08.692Z,4.8
2018-10-17T05:00:59.126Z,4.8
2018-10-17T05:01:48.565Z,4.8
2018-10-17T05:02:38.897Z,4.8
2018-10-17T05:03:28.657Z,4.8
2018-10-17T05:04:19.076Z,4.8
2018-10-17T05:05:09.712Z,4.9
2018-10-17T05:05:59.109Z,4.9
2018-10-17T05:06:49.519Z,4.9
2018-10-17T05:07:38.965Z,4.8
2018-10-17T05:08:29.294Z,4.8
2018-10-17T05:09:19.376Z,4.8
2018-10-17T05:10:09.424Z,4.8
2018-10-17T05:10:59.056Z,4.8
2018-10-17T05:11:49.249Z,4.9
2018-10-17T05:12:39.593Z,4.9
2018-10-17T05:13:29.414Z,5
2018-10-17T05:14:19.441Z,5.1
2018-10-17T05:15:09.941Z,5
2018-10-17T05:15:59.844Z,5
2018-10-17T05:16:49.626Z,5.1
2018-10-17T05:17:39.673Z,5.1
2018-10-17T05:18:29.738Z,5.2
2018-10-17T05:19:19.841Z,5.3
2018-10-17T05:20:10.149Z,5.3
2018-10-17T05:20:59.916Z,5.3
2018-10-17T05:21:49.988Z,5.4
2018-10-17T05:22:39.761Z,5.4
2018-10-17T05:23:30.113Z,5.5
2018-10-17T05:24:20.170Z,5.6
2018-10-17T05:25:11.419Z,5.6
2018-10-17T05:26:00.279Z,5.7
2018-10-17T05:26:50.360Z,5.8
2018-10-17T05:27:40.693Z,5.9
2018-10-17T05:28:30.781Z,5.9
2018-10-17T05:29:20.558Z,5.9
2018-10-17T05:30:10.606Z,6.1
2018-10-17T05:31:01.343Z,6.1
2018-10-17T05:31:51.008Z,6.1
2018-10-17T05:32:40.768Z,6.2
2018-10-17T05:33:31.132Z,6.3
2018-10-17T05:34:21.197Z,6.4
2018-10-17T05:35:11.693Z,6.4
2018-10-17T05:36:01.015Z,6.6
2018-10-17T05:36:51.444Z,6.6
2018-10-17T05:37:42.699Z,6.8
2018-10-17T05:38:31.222Z,6.8
2018-10-17T05:39:20.977Z,6.8
2018-10-17T05:40:11.599Z,6.9
2018-10-17T05:41:01.489Z,6.9
2018-10-17T05:41:51.700Z,7
2018-10-17T05:42:41.506Z,7.2
2018-10-17T05:43:31.856Z,7.3
2018-10-17T05:44:21.577Z,7.3
2018-10-17T05:45:11.988Z,7.3
2018-10-17T05:46:02.287Z,7.3
2018-10-17T05:46:52.442Z,7.3
2018-10-17T05:47:42.151Z,7.4
2018-10-17T05:48:31.939Z,7.4
2018-10-17T05:49:22.286Z,7.3
2018-10-17T05:50:11.868Z,7.3
2018-10-17T05:51:02.463Z,7.3
2018-10-17T05:51:52.173Z,7.3
2018-10-17T05:52:42.516Z,7.3
2018-10-17T05:53:32.589Z,7.3
2018-10-17T05:54:22.351Z,7.3
2018-10-17T05:55:13.573Z,7.4
2018-10-17T05:56:02.502Z,7.4
2018-10-17T05:56:52.828Z,7.4
2018-10-17T05:57:42.598Z,7.5
2018-10-17T05:58:32.946Z,7.6
2018-10-17T05:59:23.042Z,7.6
2018-10-17T06:00:12.801Z,7.8
2018-10-17T06:01:03.187Z,7.9
2018-10-17T06:01:53.417Z,7.9
2018-10-17T06:02:42.838Z,8.1
2018-10-17T06:03:33.565Z,8.2
2018-10-17T06:04:23.433Z,8.3
2018-10-17T06:05:14.286Z,8.3
2018-10-17T06:06:03.212Z,8.3
2018-10-17T06:06:53.782Z,8.3
2018-10-17T06:07:43.324Z,8.3
2018-10-17T06:08:33.685Z,8.4
2018-10-17T06:09:23.450Z,8.5
2018-10-17T06:10:14.261Z,8.6
2018-10-17T06:11:04.510Z,8.6
2018-10-17T06:11:53.930Z,8.7
2018-10-17T06:12:43.992Z,8.8
2018-10-17T06:13:34.050Z,8.9
2018-10-17T06:14:24.125Z,8.9
2018-10-17T06:15:13.890Z,9
2018-10-17T06:16:04.243Z,9.1
2018-10-17T06:16:54.904Z,9.3
2018-10-17T06:17:44.797Z,9.4
2018-10-17T06:18:34.244Z,9.7
2018-10-17T06:19:24.672Z,9.8
2018-10-17T06:20:14.909Z,9.8
2018-10-17T06:21:04.934Z,9.8
2018-10-17T06:21:55.135Z,9.8
2018-10-17T06:22:44.820Z,9.8
2018-10-17T06:23:34.866Z,9.8
2018-10-17T06:24:24.854Z,9.9
2018-10-17T06:25:15.398Z,9.9
2018-10-17T06:26:04.942Z,9.8
2018-10-17T06:26:55.083Z,10
2018-10-17T06:27:44.814Z,10.2
2018-10-17T06:28:34.880Z,10.5
2018-10-17T06:29:24.995Z,10.5
2018-10-17T06:30:15.290Z,10.6
2018-10-17T06:31:04.566Z,10.8
2018-10-17T06:31:55.487Z,10.8
2018-10-17T06:32:45.558Z,10.8
2018-10-17T06:33:35.577Z,10.8
2018-10-17T06:34:25.995Z,10.7
2018-10-17T06:35:16.432Z,10.8
2018-10-17T06:36:05.686Z,10.9
2018-10-17T06:36:55.943Z,10.9
2018-10-17T06:37:45.817Z,10.9
2018-10-17T06:38:35.877Z,10.8
2018-10-17T06:39:25.967Z,10.9
2018-10-17T06:40:16.021Z,10.9
2018-10-17T06:41:06.154Z,10.9
2018-10-17T06:41:55.547Z,11.3
2018-10-17T06:42:46.200Z,11.4
2018-10-17T06:43:36.900Z,11.5
2018-10-17T06:44:26.321Z,11.3
2018-10-17T06:45:16.362Z,11.4
2018-10-17T06:46:06.149Z,11.7
2018-10-17T06:46:56.804Z,11.6
2018-10-17T06:47:46.532Z,11.6
2018-10-17T06:48:36.059Z,11.4
2018-10-17T06:49:26.698Z,11.5
2018-10-17T06:50:16.744Z,11.6
2018-10-17T06:51:07.129Z,11.7
2018-10-17T06:51:56.859Z,11.8
2018-10-17T06:52:46.914Z,11.9
2018-10-17T06:53:36.974Z,11.7
2018-10-17T06:54:27.437Z,12.1
2018-10-17T06:55:17.922Z,12.4
2018-10-17T06:56:06.876Z,12.3
2018-10-17T06:56:57.191Z,12.4
2018-10-17T06:57:47.301Z,12.4
2018-10-17T06:58:37.336Z,12.5
2018-10-17T06:59:26.828Z,12.4
2018-10-17T07:00:17.191Z,12.6
2018-10-17T07:01:08.264Z,12.9
2018-10-17T07:01:59.020Z,13
2018-10-17T07:02:47.056Z,12.9
2018-10-17T07:03:37.680Z,12.9
2018-10-17T07:04:27.754Z,13.1
2018-10-17T07:05:18.542Z,13.1
2018-10-17T07:06:07.883Z,12.9
2018-10-17T07:06:58.203Z,13
2018-10-17T07:07:47.993Z,12.9
2018-10-17T07:08:38.340Z,13.1
2018-10-17T07:09:27.854Z,13
2018-10-17T07:10:18.167Z,13.1
2018-10-17T07:11:08.828Z,13
2018-10-17T07:11:58.311Z,12.9
2018-10-17T07:12:48.108Z,12.8
2018-10-17T07:13:38.445Z,13.1
2018-10-17T07:14:28.190Z,13.3
2018-10-17T07:15:18.547Z,13.1
2018-10-17T07:16:08.056Z,13.4
2018-10-17T07:16:59.059Z,13.7
2018-10-17T07:17:48.745Z,13.6
2018-10-17T07:18:38.793Z,13.6
2018-10-17T07:19:28.642Z,13.6
2018-10-17T07:20:18.935Z,13.8
2018-10-17T07:21:08.982Z,13.9
2018-10-17T07:21:58.572Z,13.9
2018-10-17T07:22:48.819Z,13.8
2018-10-17T07:23:38.872Z,13.9
2018-10-17T07:24:29.227Z,13.8
2018-10-17T07:25:19.434Z,13.7
2018-10-17T07:26:09.349Z,13.8
2018-10-17T07:26:59.421Z,13.9
2018-10-17T07:27:49.033Z,14.3
2018-10-17T07:28:39.425Z,14.4
2018-10-17T07:29:31.397Z,14.5
2018-10-17T07:30:19.170Z,14.5
2018-10-17T07:31:10.205Z,14.7
2018-10-17T07:31:59.492Z,14.8
2018-10-17T07:32:49.279Z,14.7
2018-10-17T07:33:39.952Z,14.8
2018-10-17T07:34:29.946Z,14.9
2018-10-17T07:35:19.730Z,14.9
2018-10-17T07:36:10.743Z,14.8
2018-10-17T07:37:00.389Z,14.9
2018-10-17T07:37:49.918Z,15.1
2018-10-17T07:38:40.297Z,15.1
2018-10-17T07:39:30.049Z,15.3
2018-10-17T07:40:20.629Z,15.6
2018-10-17T07:41:10.446Z,15.7
2018-10-17T07:42:00.486Z,15.9
2018-10-17T07:42:50.577Z,15.8
2018-10-17T07:43:40.676Z,15.9
2018-10-17T07:44:30.221Z,15.8
2018-10-17T07:45:20.757Z,15.9
2018-10-17T07:46:10.883Z,15.8
2018-10-17T07:47:00.896Z,15.5
2018-10-17T07:47:51.008Z,15.2
2018-10-17T07:48:41.001Z,15.3
2018-10-17T07:49:30.786Z,15.3
2018-10-17T07:50:21.126Z,15.6
2018-10-17T07:51:11.171Z,15.9
2018-10-17T07:52:01.014Z,15.9
2018-10-17T07:52:51.115Z,16
2018-10-17T07:53:42.061Z,16.3
2018-10-17T07:54:31.430Z,16.5
2018-10-17T07:55:21.758Z,16.1
2018-10-17T07:56:11.541Z,16.2
2018-10-17T07:57:01.616Z,16.3
2018-10-17T07:57:51.690Z,16.4
2018-10-17T07:58:41.740Z,16.5
2018-10-17T07:59:31.742Z,16.6
2018-10-17T08:00:21.833Z,16.6
2018-10-17T08:01:11.348Z,16.5
2018-10-17T08:02:01.721Z,16.4
2018-10-17T08:02:51.562Z,16.4
2018-10-17T08:03:42.092Z,16.3
2018-10-17T08:04:31.874Z,16.2
2018-10-17T08:05:21.933Z,16.3
2018-10-17T08:06:13.277Z,16.7
2018-10-17T08:07:52.133Z,17.3
2018-10-17T08:08:42.476Z,16.9
2018-10-17T08:09:32.540Z,16.6
2018-10-17T08:10:22.319Z,16.6
2018-10-17T08:11:12.912Z,16.9
2018-10-17T08:12:03.202Z,16.8
2018-10-17T08:12:52.788Z,16.9
2018-10-17T08:13:42.556Z,17.1
2018-10-17T08:14:32.909Z,16.9
2018-10-17T08:15:22.397Z,17.1
2018-10-17T08:16:13.035Z,17.2
2018-10-17T08:17:53.315Z,17.1
2018-10-17T08:18:43.224Z,17.2
2018-10-17T08:19:32.981Z,17.4
2018-10-17T08:20:23.378Z,17.4
2018-10-17T08:21:13.597Z,17.7
2018-10-17T08:22:03.427Z,17.7
2018-10-17T08:22:53.547Z,16.8
2018-10-17T08:23:43.584Z,16.6
2018-10-17T08:24:33.629Z,16.8
2018-10-17T08:26:13.766Z,16.9
2018-10-17T08:27:03.551Z,16.9
2018-10-17T08:27:53.900Z,16.8
2018-10-17T08:28:43.934Z,17.1
2018-10-17T08:29:33.724Z,17.1
2018-10-17T08:30:24.084Z,17.9
2018-10-17T08:31:14.144Z,18.2
2018-10-17T08:32:03.896Z,18.3
2018-10-17T08:32:54.250Z,18.3
2018-10-17T08:33:44.317Z,18.2
2018-10-17T08:34:34.075Z,18.6
2018-10-17T08:35:25.353Z,18.3
2018-10-17T08:36:15.184Z,18.1
2018-10-17T08:37:08.062Z,18.1
2018-10-17T08:37:56.788Z,18.4
2018-10-17T08:38:44.674Z,18.3
2018-10-17T08:39:34.465Z,18.2
2018-10-17T08:40:24.798Z,18.1
2018-10-17T08:41:15.556Z,18.5
2018-10-17T08:42:04.911Z,18.9
2018-10-17T08:42:54.704Z,18.3
2018-10-17T08:43:45.098Z,17.4
2018-10-17T08:44:34.335Z,17.4
2018-10-17T08:45:24.680Z,17.3
2018-10-17T08:46:14.695Z,17.4
2018-10-17T08:47:04.801Z,18.1
2018-10-17T08:47:55.065Z,18.6
2018-10-17T08:48:45.142Z,18.9
2018-10-17T08:49:35.512Z,19
2018-10-17T08:50:25.613Z,19.2
2018-10-17T08:51:15.604Z,19.1
2018-10-17T08:52:05.679Z,19.3
2018-10-17T09:08:51.293Z,19.6
2018-10-17T09:09:41.095Z,19.9
2018-10-17T09:10:31.425Z,20.2
2018-10-17T09:11:21.483Z,20.4
2018-10-17T09:12:12.061Z,20.3
2018-10-17T09:13:01.655Z,19.9
2018-10-17T09:13:51.715Z,19.7
2018-10-17T09:14:41.435Z,19.8
2018-10-17T09:15:31.812Z,19.8
2018-10-17T09:16:22.387Z,19.9
2018-10-17T09:17:11.619Z,19.6
2018-10-17T09:18:02.025Z,19.6
2018-10-17T09:18:51.755Z,19.4
2018-10-17T09:19:44.028Z,19.1
2018-10-17T09:20:33.037Z,19.3
2018-10-17T09:21:26.755Z,19.8
2018-10-17T09:22:16.191Z,20.3
2018-10-17T09:23:02.334Z,20.6
2018-10-17T09:23:52.124Z,20.9
2018-10-17T09:24:42.179Z,21.1
2018-10-17T09:25:33.244Z,21.1
2018-10-17T09:27:12.645Z,21.2
2018-10-17T09:28:02.932Z,20.9
2018-10-17T09:28:52.826Z,21.1
2018-10-17T09:29:42.811Z,21
2018-10-17T09:30:34.346Z,20.7
2018-10-17T09:31:22.941Z,20.7
2018-10-17T09:32:13.019Z,20.9
2018-10-17T09:33:02.782Z,20.9
2018-10-17T09:33:53.333Z,21
2018-10-17T09:34:42.919Z,21.4
2018-10-17T09:35:33.752Z,21.5
2018-10-17T09:36:23.622Z,21.8
2018-10-17T09:37:13.381Z,21.6
2018-10-17T09:38:03.453Z,21.6
2018-10-17T09:38:53.734Z,21.2
2018-10-17T09:39:43.270Z,21.2
2018-10-17T09:40:33.620Z,21.7
2018-10-17T09:41:23.135Z,22.2
2018-10-17T09:42:14.641Z,22.3
2018-10-17T09:43:03.704Z,22
2018-10-17T09:43:54.097Z,22.1
2018-10-17T09:44:43.927Z,22.1
2018-10-17T09:45:33.716Z,22.4
2018-10-17T09:46:23.783Z,22.9
2018-10-17T09:47:14.102Z,23.1
2018-10-17T09:48:04.716Z,23.2
2018-10-17T09:48:54.007Z,23.4
2018-10-17T09:49:44.375Z,22.9
2018-10-17T09:50:34.016Z,22.8
2018-10-17T09:51:24.444Z,22.8
2018-10-17T09:52:14.596Z,22.8
2018-10-17T09:53:04.572Z,22.7
2018-10-17T09:53:54.807Z,23.1
2018-10-17T09:54:44.668Z,23
2018-10-17T09:55:34.727Z,22.9
2018-10-17T09:56:24.895Z,23.1
2018-10-17T09:57:14.279Z,23
2018-10-17T09:58:05.313Z,23
2018-10-17T09:58:54.969Z,23
2018-10-17T09:59:44.463Z,23.1
2018-10-17T10:00:34.807Z,23.3
2018-10-17T10:01:25.157Z,23.6
2018-10-17T10:02:15.637Z,24
2018-10-17T10:03:05.285Z,24.2
2018-10-17T10:03:55.609Z,24.1
2018-10-17T10:04:45.410Z,23.6
2018-10-17T10:05:35.777Z,22.7
2018-10-17T10:06:25.519Z,22.4
2018-10-17T10:07:15.308Z,22.3
2018-10-17T10:08:05.647Z,22.4
2018-10-17T10:08:55.411Z,22.4
2018-10-17T10:09:45.782Z,22.1
2018-10-17T10:10:35.553Z,22.3
2018-10-17T10:11:25.907Z,22.1
2018-10-17T10:12:17.106Z,22.3
2018-10-17T10:13:06.014Z,22.7
2018-10-17T10:13:57.317Z,22.9
2018-10-17T10:14:46.414Z,22.8
2018-10-17T10:15:35.955Z,22.9
2018-10-17T10:16:26.386Z,23
2018-10-17T10:17:16.399Z,23
2018-10-17T10:18:05.534Z,23.1
2018-10-17T10:18:56.466Z,22.8
2018-10-17T10:19:46.522Z,22.8
2018-10-17T10:20:36.593Z,22.8
2018-10-17T10:21:26.660Z,22.4
2018-10-17T10:22:17.265Z,22.8
2018-10-17T10:23:07.161Z,23.6
2018-10-17T10:23:56.673Z,23.6
2018-10-17T10:24:47.756Z,23.7
2018-10-17T10:25:36.935Z,23.4
2018-10-17T10:26:26.470Z,23.1
2018-10-17T10:27:17.137Z,23.2
2018-10-17T10:28:08.075Z,23.5
2018-10-17T10:28:56.913Z,23.4
2018-10-17T10:29:47.891Z,23.6
2018-10-17T10:30:37.323Z,23.5
2018-10-17T10:31:27.388Z,23.1
2018-10-17T10:32:17.480Z,22.9
2018-10-17T10:33:07.810Z,23.4
2018-10-17T10:33:57.875Z,23.8
2018-10-17T10:34:47.888Z,24.3
2018-10-17T10:35:37.423Z,24.4
2018-10-17T10:36:27.746Z,24.4
2018-10-17T10:37:17.518Z,24
2018-10-17T10:38:07.913Z,23.3
2018-10-17T10:38:57.633Z,23.1
2018-10-17T10:39:48.017Z,23.4
2018-10-17T10:40:38.709Z,22.7
2018-10-17T10:41:28.087Z,22.5
2018-10-17T10:42:18.698Z,23
2018-10-17T10:43:08.239Z,23.1
2018-10-17T10:43:58.607Z,22.8
2018-10-17T10:44:48.596Z,23.3
2018-10-17T10:45:39.328Z,23.3
2018-10-17T10:46:28.477Z,23
2018-10-17T10:47:18.543Z,23.5
2018-10-17T10:48:09.444Z,23.7
2018-10-17T10:48:58.742Z,23.6
2018-10-17T10:49:48.719Z,23.4
2018-10-17T10:50:38.795Z,23.5
2018-10-17T10:51:28.904Z,23.4
2018-10-17T10:52:18.631Z,23.3
2018-10-17T10:53:09.662Z,23.7
2018-10-17T10:53:59.337Z,23.9
2018-10-17T10:54:48.827Z,23.4
2018-10-17T10:55:38.856Z,23.7
2018-10-17T10:56:29.217Z,24.2
2018-10-17T10:57:19.632Z,24.3
2018-10-17T10:58:10.397Z,24.5
2018-10-17T10:59:00.334Z,24.1
2018-10-17T10:59:49.609Z,24.3
2018-10-17T11:00:39.514Z,24.3
2018-10-17T11:01:29.304Z,24.1
2018-10-17T11:02:20.022Z,23.4
2018-10-17T11:03:09.952Z,23.1
2018-10-17T11:03:59.471Z,22.9
2018-10-17T11:04:50.721Z,23.3
2018-10-17T11:05:41.370Z,23.8
2018-10-17T11:06:29.938Z,23.8
2018-10-17T11:07:19.981Z,23.6
2018-10-17T11:08:10.831Z,23.9
2018-10-17T11:09:00.128Z,24
2018-10-17T11:09:50.198Z,24.2
2018-10-17T11:10:40.271Z,24.4
2018-10-17T11:11:30.578Z,24.6
2018-10-17T11:12:20.376Z,24.6
2018-10-17T11:13:10.450Z,24.3
2018-10-17T11:14:01.417Z,24.7
2018-10-17T11:14:52.376Z,24.1
2018-10-17T11:15:40.685Z,24.4
2018-10-17T11:16:30.687Z,24.9
2018-10-17T11:17:20.714Z,24.9
2018-10-17T11:18:10.818Z,24.8
2018-10-17T11:19:00.860Z,24.1
2018-10-17T11:19:50.923Z,23.8
2018-10-17T11:20:40.720Z,23.8
2018-10-17T11:21:30.215Z,23.9
2018-10-17T11:22:21.415Z,24.1
2018-10-17T11:23:11.605Z,24.1
2018-10-17T11:24:00.939Z,24.3
2018-10-17T11:24:50.725Z,24.4
2018-10-17T11:25:41.345Z,24.1
2018-10-17T11:26:31.437Z,24.7
2018-10-17T11:27:21.891Z,25
2018-10-17T11:28:11.539Z,24.6
2018-10-17T11:29:02.000Z,24.2
2018-10-17T11:29:51.658Z,23.8
2018-10-17T11:30:41.441Z,23.1
2018-10-17T11:31:31.791Z,23.2
2018-10-17T11:32:21.904Z,23.4
2018-10-17T11:33:12.919Z,23.8
2018-10-17T11:34:02.005Z,24.3
2018-10-17T11:34:52.074Z,24.2
2018-10-17T11:35:42.107Z,24.4
2018-10-17T11:36:32.214Z,23.8
2018-10-17T11:37:22.865Z,23.9
2018-10-17T11:38:12.017Z,24.4
2018-10-17T11:39:02.946Z,24.1
2018-10-17T11:39:52.289Z,24.3
2018-10-17T11:40:43.576Z,24.3
2018-10-17T11:41:33.300Z,24.4
2018-10-17T11:42:22.302Z,24.8
2018-10-17T11:43:12.928Z,24.5
2018-10-17T11:44:02.786Z,24.5
2018-10-17T11:44:52.585Z,24.3
2018-10-17T11:45:42.850Z,24.3
2018-10-17T11:46:32.954Z,24.5
2018-10-17T11:47:22.989Z,24.9
2018-10-17T11:48:13.018Z,25.3
2018-10-17T11:49:02.836Z,25.4
2018-10-17T11:49:52.874Z,25.5
2018-10-17T11:50:43.486Z,25.4
2018-10-17T11:51:33.267Z,25.3
2018-10-17T11:52:23.328Z,25.3
2018-10-17T11:53:13.050Z,25.1
2018-10-17T11:54:03.478Z,25
2018-10-17T11:54:53.226Z,25.3
2018-10-17T11:55:47.590Z,25.8
2018-10-17T11:56:33.700Z,25.9
2018-10-17T11:57:23.500Z,25.9
2018-10-17T11:58:13.822Z,25.6
2018-10-17T11:59:03.940Z,25.4
2018-10-17T11:59:53.680Z,24.8
2018-10-17T12:00:43.736Z,24.8
2018-10-17T12:01:33.834Z,25.1
2018-10-17T12:02:23.559Z,25.2
2018-10-17T12:03:14.814Z,25.4
2018-10-17T12:04:07.622Z,25.5
2018-10-17T12:04:56.016Z,25.8
2018-10-17T12:05:46.207Z,25.4
2018-10-17T12:06:35.124Z,24.8
2018-10-17T14:07:36.740Z,23.1
2018-10-17T14:08:26.250Z,23.3
2018-10-17T14:09:16.873Z,23.3
2018-10-17T14:10:06.376Z,23.4
2018-10-17T14:10:56.426Z,23.3
2018-10-17T14:11:47.154Z,23.3
2018-10-17T14:12:36.837Z,23.3
2018-10-17T14:13:27.283Z,23.4
2018-10-17T14:14:16.661Z,23.5
2018-10-17T14:15:07.277Z,23.6